Aérodrome :
LOGIN :

S'inscrire | Disclaimer

   EN    FR    IT 

 










Légende :    VFR   VFR Marginal   IFR   IFR Intensif   IFR Très Intensif
Visi : 
Plafond : 
>= 8 km
>= 3000ft
5 à 8 km
1000 à 3000 ft
1500m à 5 km
500 à 1000 ft
800 à 1500m
200 à 500 ft
< 800m
< 200 ft
Symboles :   Orages  Brouillard  Fortes neiges  Fortes précipitations  Vent > 20 kt
SIGMETs :   Divers  Orages  Givrage  Turbulence  Onde Orograph.  Cendres Volcan.






- Altitude de l'aérodrome : 156 ft
- Code IATA : OMO


LQMO - Mostar

DERNIER METAR :
  • 021100Z 32005KT 270V030 9999 FEW045 37/14 Q1013

METARs EXPIRÉS :
  • 021000Z 26005KT 220V310 9999 FEW050 37/15 Q1013
  • 020900Z VRB03KT CAVOK 35/13 Q1014
  • 020830Z 11004KT 060V200 CAVOK 33/12 Q1014

TAF TAF LQMO
Valide du 02 à 12h jusqu'au 03 à 12h UTC


021100Z 0212/0312 32007KT CAVOK TX39/0213Z TN22/0303Z
PROB30
TEMPO 0212/0218 VRB15KT 5000 TSRA FEW045CB SCT055
TEMPO 0218/0306 03012KT



MET'MAP, la Météo Aéronautique d'un coup d'oeil ! - Copyright ORBIFLY Décembre 2007 - Disclaimer

ORBIFLY MET'MAP TEAM :

Programmation & Développement : Alexandra Zaïnal
Sur une idée originale de : Baudouin d'Aumeries
Soutien technique & logistique : Manuel Goepfert
Assistance : Marc-Olivier Méhu




SOURCES & CREDITS :

   NOAA